sensor_id;sensor_type;location;lat;lon;timestamp;pressure;altitude;pressure_sealevel;temperature;humidity
75298;BME280;63896;45.990;18.688;2023-05-23T00:00:41;100439.81;;;15.43;98.02
75298;BME280;63896;45.990;18.688;2023-05-23T00:03:44;100437.44;;;15.47;97.96
75298;BME280;63896;45.990;18.688;2023-05-23T00:06:49;100432.28;;;15.40;97.49
75298;BME280;63896;45.990;18.688;2023-05-23T00:09:52;100426.59;;;15.37;98.23
75298;BME280;63896;45.990;18.688;2023-05-23T00:12:55;100427.88;;;15.34;98.06
75298;BME280;63896;45.990;18.688;2023-05-23T00:15:59;100425.88;;;15.24;98.19
75298;BME280;63896;45.990;18.688;2023-05-23T00:19:04;100423.13;;;15.19;98.42
75298;BME280;63896;45.990;18.688;2023-05-23T00:22:07;100429.44;;;15.13;98.53
75298;BME280;63896;45.990;18.688;2023-05-23T00:25:10;100434.78;;;15.13;99.23
75298;BME280;63896;45.990;18.688;2023-05-23T00:28:13;100436.66;;;15.13;98.67
75298;BME280;63896;45.990;18.688;2023-05-23T00:31:17;100438.50;;;15.12;100.00
75298;BME280;63896;45.990;18.688;2023-05-23T00:34:20;100439.41;;;15.01;100.00
75298;BME280;63896;45.990;18.688;2023-05-23T00:37:23;100439.00;;;15.09;100.00
75298;BME280;63896;45.990;18.688;2023-05-23T00:40:26;100435.91;;;15.01;100.00
75298;BME280;63896;45.990;18.688;2023-05-23T00:43:29;100440.50;;;14.89;100.00
75298;BME280;63896;45.990;18.688;2023-05-23T00:46:33;100443.34;;;14.82;100.00
75298;BME280;63896;45.990;18.688;2023-05-23T00:49:36;100448.03;;;14.75;100.00
75298;BME280;63896;45.990;18.688;2023-05-23T00:52:39;100448.09;;;14.63;100.00
75298;BME280;63896;45.990;18.688;2023-05-23T00:55:43;100439.75;;;14.48;100.00
75298;BME280;63896;45.990;18.688;2023-05-23T00:58:46;100443.50;;;14.47;100.00
75298;BME280;63896;45.990;18.688;2023-05-23T01:01:49;100447.16;;;14.58;100.00
75298;BME280;63896;45.990;18.688;2023-05-23T01:05:00;100445.03;;;14.43;100.00
75298;BME280;63896;45.990;18.688;2023-05-23T01:08:03;100437.72;;;14.39;100.00
75298;BME280;63896;45.990;18.688;2023-05-23T01:11:27;100442.91;;;14.33;100.00
75298;BME280;63896;45.990;18.688;2023-05-23T01:14:40;100440.16;;;14.40;100.00
75298;BME280;63896;45.990;18.688;2023-05-23T01:18:28;100435.28;;;14.37;100.00
75298;BME280;63896;45.990;18.688;2023-05-23T01:21:17;100442.72;;;14.23;100.00
75298;BME280;63896;45.990;18.688;2023-05-23T01:24:29;100442.06;;;14.16;100.00
75298;BME280;63896;45.990;18.688;2023-05-23T01:27:43;100435.78;;;14.11;100.00
75298;BME280;63896;45.990;18.688;2023-05-23T01:30:51;100438.50;;;13.99;100.00
75298;BME280;63896;45.990;18.688;2023-05-23T01:33:54;100435.38;;;13.91;100.00
75298;BME280;63896;45.990;18.688;2023-05-23T01:36:57;100430.16;;;13.84;100.00
75298;BME280;63896;45.990;18.688;2023-05-23T01:40:00;100427.72;;;13.82;100.00
75298;BME280;63896;45.990;18.688;2023-05-23T01:43:03;100419.72;;;13.82;100.00
75298;BME280;63896;45.990;18.688;2023-05-23T01:46:07;100420.78;;;13.81;100.00
75298;BME280;63896;45.990;18.688;2023-05-23T01:53:04;100412.53;;;13.83;100.00
75298;BME280;63896;45.990;18.688;2023-05-23T01:56:07;100415.69;;;13.80;100.00
75298;BME280;63896;45.990;18.688;2023-05-23T01:59:10;100410.94;;;13.82;100.00
75298;BME280;63896;45.990;18.688;2023-05-23T02:02:13;100410.81;;;13.77;100.00
75298;BME280;63896;45.990;18.688;2023-05-23T02:05:16;100418.81;;;13.89;100.00
75298;BME280;63896;45.990;18.688;2023-05-23T02:08:20;100419.03;;;13.87;100.00
75298;BME280;63896;45.990;18.688;2023-05-23T02:11:23;100417.44;;;13.86;100.00
75298;BME280;63896;45.990;18.688;2023-05-23T02:14:25;100420.31;;;13.84;100.00
75298;BME280;63896;45.990;18.688;2023-05-23T02:17:29;100416.84;;;13.84;100.00
75298;BME280;63896;45.990;18.688;2023-05-23T02:20:34;100411.03;;;13.75;100.00
75298;BME280;63896;45.990;18.688;2023-05-23T02:23:38;100415.78;;;13.85;100.00
75298;BME280;63896;45.990;18.688;2023-05-23T02:26:41;100415.44;;;13.81;100.00
75298;BME280;63896;45.990;18.688;2023-05-23T02:29:44;100417.78;;;13.78;100.00
75298;BME280;63896;45.990;18.688;2023-05-23T02:32:47;100413.72;;;13.75;100.00
75298;BME280;63896;45.990;18.688;2023-05-23T02:35:50;100409.31;;;13.69;100.00
75298;BME280;63896;45.990;18.688;2023-05-23T02:38:53;100414.41;;;13.71;100.00
75298;BME280;63896;45.990;18.688;2023-05-23T02:41:56;100416.00;;;13.83;100.00
75298;BME280;63896;45.990;18.688;2023-05-23T02:45:00;100414.38;;;13.94;100.00
75298;BME280;63896;45.990;18.688;2023-05-23T02:48:03;100404.72;;;14.05;100.00
75298;BME280;63896;45.990;18.688;2023-05-23T02:51:06;100404.06;;;13.98;100.00
75298;BME280;63896;45.990;18.688;2023-05-23T02:54:09;100404.44;;;13.90;100.00
75298;BME280;63896;45.990;18.688;2023-05-23T02:57:12;100409.03;;;13.94;100.00
75298;BME280;63896;45.990;18.688;2023-05-23T03:00:16;100407.44;;;13.93;100.00
75298;BME280;63896;45.990;18.688;2023-05-23T03:03:23;100400.91;;;14.01;100.00
75298;BME280;63896;45.990;18.688;2023-05-23T03:06:26;100394.88;;;14.05;100.00
75298;BME280;63896;45.990;18.688;2023-05-23T03:09:30;100401.97;;;14.00;100.00
75298;BME280;63896;45.990;18.688;2023-05-23T03:12:33;100389.09;;;13.97;100.00
75298;BME280;63896;45.990;18.688;2023-05-23T03:15:36;100400.47;;;13.92;100.00
75298;BME280;63896;45.990;18.688;2023-05-23T03:18:39;100396.66;;;13.88;100.00
75298;BME280;63896;45.990;18.688;2023-05-23T03:21:43;100403.84;;;13.88;100.00
75298;BME280;63896;45.990;18.688;2023-05-23T03:24:46;100392.34;;;13.87;100.00
75298;BME280;63896;45.990;18.688;2023-05-23T03:27:49;100394.47;;;13.85;100.00
75298;BME280;63896;45.990;18.688;2023-05-23T03:30:51;100393.97;;;13.88;100.00
75298;BME280;63896;45.990;18.688;2023-05-23T03:33:54;100395.00;;;13.99;100.00
75298;BME280;63896;45.990;18.688;2023-05-23T03:36:57;100394.88;;;14.05;100.00
75298;BME280;63896;45.990;18.688;2023-05-23T03:40:01;100401.81;;;14.06;100.00
75298;BME280;63896;45.990;18.688;2023-05-23T03:43:05;100397.91;;;13.97;100.00
75298;BME280;63896;45.990;18.688;2023-05-23T03:46:11;100395.84;;;13.88;100.00
75298;BME280;63896;45.990;18.688;2023-05-23T03:49:14;100395.69;;;13.94;100.00
75298;BME280;63896;45.990;18.688;2023-05-23T03:52:17;100393.41;;;13.98;100.00
75298;BME280;63896;45.990;18.688;2023-05-23T03:55:20;100402.78;;;13.89;100.00
75298;BME280;63896;45.990;18.688;2023-05-23T03:58:24;100408.13;;;13.89;100.00
75298;BME280;63896;45.990;18.688;2023-05-23T04:01:32;100418.66;;;13.95;100.00
75298;BME280;63896;45.990;18.688;2023-05-23T04:04:35;100417.16;;;13.99;100.00
75298;BME280;63896;45.990;18.688;2023-05-23T04:07:39;100413.56;;;14.05;100.00
75298;BME280;63896;45.990;18.688;2023-05-23T04:10:44;100413.31;;;14.07;100.00
75298;BME280;63896;45.990;18.688;2023-05-23T04:13:47;100423.28;;;14.11;100.00
75298;BME280;63896;45.990;18.688;2023-05-23T04:16:50;100415.22;;;14.23;100.00
75298;BME280;63896;45.990;18.688;2023-05-23T04:19:53;100413.47;;;14.28;100.00
75298;BME280;63896;45.990;18.688;2023-05-23T04:22:57;100410.00;;;14.28;100.00
75298;BME280;63896;45.990;18.688;2023-05-23T04:26:01;100419.22;;;14.49;100.00
75298;BME280;63896;45.990;18.688;2023-05-23T04:29:07;100421.31;;;14.75;100.00
75298;BME280;63896;45.990;18.688;2023-05-23T04:32:10;100422.53;;;14.84;100.00
75298;BME280;63896;45.990;18.688;2023-05-23T04:35:13;100418.03;;;15.01;100.00
75298;BME280;63896;45.990;18.688;2023-05-23T04:38:16;100416.47;;;15.22;100.00
75298;BME280;63896;45.990;18.688;2023-05-23T04:41:19;100416.31;;;15.62;100.00
75298;BME280;63896;45.990;18.688;2023-05-23T04:44:43;100419.06;;;16.10;99.35
75298;BME280;63896;45.990;18.688;2023-05-23T04:48:10;100414.41;;;16.49;96.35
75298;BME280;63896;45.990;18.688;2023-05-23T04:51:19;100419.81;;;17.03;93.26
75298;BME280;63896;45.990;18.688;2023-05-23T04:54:49;100415.81;;;17.47;89.92
75298;BME280;63896;45.990;18.688;2023-05-23T04:58:11;100411.41;;;17.63;88.63
75298;BME280;63896;45.990;18.688;2023-05-23T05:01:14;100409.44;;;18.05;86.32
75298;BME280;63896;45.990;18.688;2023-05-23T05:04:17;100404.19;;;18.46;83.78
75298;BME280;63896;45.990;18.688;2023-05-23T05:07:20;100408.84;;;18.66;82.42
75298;BME280;63896;45.990;18.688;2023-05-23T05:10:23;100409.41;;;19.03;80.22
75298;BME280;63896;45.990;18.688;2023-05-23T05:13:26;100404.56;;;19.20;79.66
75298;BME280;63896;45.990;18.688;2023-05-23T05:16:30;100398.63;;;19.48;77.64
75298;BME280;63896;45.990;18.688;2023-05-23T05:19:34;100398.34;;;19.35;77.75
75298;BME280;63896;45.990;18.688;2023-05-23T05:22:38;100394.78;;;19.75;76.67
75298;BME280;63896;45.990;18.688;2023-05-23T05:25:46;100391.22;;;19.94;75.79
75298;BME280;63896;45.990;18.688;2023-05-23T05:28:49;100390.41;;;19.99;75.63
75298;BME280;63896;45.990;18.688;2023-05-23T05:31:53;100392.75;;;20.16;75.46
75298;BME280;63896;45.990;18.688;2023-05-23T05:34:56;100396.78;;;20.13;75.52
75298;BME280;63896;45.990;18.688;2023-05-23T05:38:02;100397.28;;;20.20;75.88
75298;BME280;63896;45.990;18.688;2023-05-23T05:41:06;100400.44;;;20.42;74.80
75298;BME280;63896;45.990;18.688;2023-05-23T05:44:14;100405.59;;;20.78;73.23
75298;BME280;63896;45.990;18.688;2023-05-23T05:47:19;100411.88;;;21.02;69.33
75298;BME280;63896;45.990;18.688;2023-05-23T05:50:22;100403.06;;;20.91;69.71
75298;BME280;63896;45.990;18.688;2023-05-23T05:53:25;100405.56;;;21.17;69.05
75298;BME280;63896;45.990;18.688;2023-05-23T05:56:29;100403.19;;;21.10;69.26
75298;BME280;63896;45.990;18.688;2023-05-23T05:59:34;100409.38;;;21.11;68.26
75298;BME280;63896;45.990;18.688;2023-05-23T06:02:38;100408.56;;;21.15;68.73
75298;BME280;63896;45.990;18.688;2023-05-23T06:05:44;100406.38;;;21.17;68.84
75298;BME280;63896;45.990;18.688;2023-05-23T06:08:50;100417.41;;;21.50;68.82
75298;BME280;63896;45.990;18.688;2023-05-23T06:11:55;100412.13;;;21.92;66.24
75298;BME280;63896;45.990;18.688;2023-05-23T06:15:13;100406.06;;;22.24;65.75
75298;BME280;63896;45.990;18.688;2023-05-23T06:18:29;100409.09;;;22.17;64.75
75298;BME280;63896;45.990;18.688;2023-05-23T06:22:25;100401.25;;;22.77;62.46
75298;BME280;63896;45.990;18.688;2023-05-23T06:25:37;100410.66;;;22.79;61.94
75298;BME280;63896;45.990;18.688;2023-05-23T06:28:44;100405.13;;;23.36;60.19
75298;BME280;63896;45.990;18.688;2023-05-23T06:31:49;100408.69;;;23.63;59.27
75298;BME280;63896;45.990;18.688;2023-05-23T06:34:54;100400.19;;;23.97;57.60
75298;BME280;63896;45.990;18.688;2023-05-23T06:37:58;100407.78;;;24.36;55.83
75298;BME280;63896;45.990;18.688;2023-05-23T06:41:03;100407.81;;;24.58;54.55
75298;BME280;63896;45.990;18.688;2023-05-23T06:44:10;100410.81;;;24.71;54.08
75298;BME280;63896;45.990;18.688;2023-05-23T06:47:15;100409.75;;;25.25;52.05
75298;BME280;63896;45.990;18.688;2023-05-23T06:50:18;100417.00;;;25.07;52.65
75298;BME280;63896;45.990;18.688;2023-05-23T06:53:25;100415.06;;;25.52;52.02
75298;BME280;63896;45.990;18.688;2023-05-23T06:56:29;100417.34;;;26.06;50.87
75298;BME280;63896;45.990;18.688;2023-05-23T06:59:33;100424.59;;;25.80;51.53
75298;BME280;63896;45.990;18.688;2023-05-23T07:02:50;100418.66;;;26.26;50.33
75298;BME280;63896;45.990;18.688;2023-05-23T07:07:19;100416.13;;;27.07;48.95
75298;BME280;63896;45.990;18.688;2023-05-23T07:10:22;100408.25;;;27.23;48.26
75298;BME280;63896;45.990;18.688;2023-05-23T07:22:35;100397.22;;;29.76;40.76
75298;BME280;63896;45.990;18.688;2023-05-23T07:25:38;100405.34;;;30.61;40.25
75298;BME280;63896;45.990;18.688;2023-05-23T07:29:06;100405.59;;;30.84;37.99
75298;BME280;63896;45.990;18.688;2023-05-23T07:32:11;100395.50;;;31.00;38.40
75298;BME280;63896;45.990;18.688;2023-05-23T07:35:14;100409.47;;;30.83;39.42
75298;BME280;63896;45.990;18.688;2023-05-23T07:38:23;100396.72;;;31.03;37.97
75298;BME280;63896;45.990;18.688;2023-05-23T07:41:26;100395.19;;;31.49;37.35
75298;BME280;63896;45.990;18.688;2023-05-23T07:44:29;100402.56;;;31.76;36.53
75298;BME280;63896;45.990;18.688;2023-05-23T07:47:31;100401.81;;;32.10;36.07
75298;BME280;63896;45.990;18.688;2023-05-23T07:50:34;100384.94;;;32.47;34.65
75298;BME280;63896;45.990;18.688;2023-05-23T07:57:35;100402.47;;;31.73;34.96
75298;BME280;63896;45.990;18.688;2023-05-23T08:00:44;100396.31;;;31.32;35.24
75298;BME280;63896;45.990;18.688;2023-05-23T08:04:02;100402.88;;;31.28;37.72
75298;BME280;63896;45.990;18.688;2023-05-23T08:07:20;100393.25;;;32.50;35.83
75298;BME280;63896;45.990;18.688;2023-05-23T08:10:31;100395.53;;;32.64;35.32
75298;BME280;63896;45.990;18.688;2023-05-23T08:13:41;100392.88;;;33.10;33.12
75298;BME280;63896;45.990;18.688;2023-05-23T08:17:07;100393.38;;;34.66;31.32
75298;BME280;63896;45.990;18.688;2023-05-23T08:20:11;100383.53;;;33.82;31.39
75298;BME280;63896;45.990;18.688;2023-05-23T08:23:14;100388.44;;;34.82;30.33
75298;BME280;63896;45.990;18.688;2023-05-23T08:26:17;100395.88;;;35.59;29.22
75298;BME280;63896;45.990;18.688;2023-05-23T08:29:21;100390.66;;;35.94;27.74
75298;BME280;63896;45.990;18.688;2023-05-23T08:32:24;100390.69;;;35.50;28.29
75298;BME280;63896;45.990;18.688;2023-05-23T08:35:27;100390.72;;;36.08;27.55
75298;BME280;63896;45.990;18.688;2023-05-23T08:38:36;100383.19;;;36.88;26.11
75298;BME280;63896;45.990;18.688;2023-05-23T08:42:01;100390.66;;;36.66;25.50
75298;BME280;63896;45.990;18.688;2023-05-23T08:45:05;100389.91;;;36.84;27.07
75298;BME280;63896;45.990;18.688;2023-05-23T08:48:08;100386.34;;;36.87;26.90
75298;BME280;63896;45.990;18.688;2023-05-23T08:51:17;100387.41;;;36.54;27.04
75298;BME280;63896;45.990;18.688;2023-05-23T08:54:23;100384.81;;;38.13;25.21
75298;BME280;63896;45.990;18.688;2023-05-23T08:57:26;100387.63;;;37.42;26.13
75298;BME280;63896;45.990;18.688;2023-05-23T09:00:34;100385.66;;;37.36;25.50
75298;BME280;63896;45.990;18.688;2023-05-23T09:03:39;100379.63;;;38.26;24.66
75298;BME280;63896;45.990;18.688;2023-05-23T09:07:04;100379.75;;;37.73;25.82
75298;BME280;63896;45.990;18.688;2023-05-23T09:10:09;100375.31;;;38.10;24.98
75298;BME280;63896;45.990;18.688;2023-05-23T09:13:32;100380.06;;;38.13;24.87
75298;BME280;63896;45.990;18.688;2023-05-23T09:16:38;100367.81;;;37.93;24.95
75298;BME280;63896;45.990;18.688;2023-05-23T09:19:47;100375.72;;;38.05;25.10
75298;BME280;63896;45.990;18.688;2023-05-23T09:23:14;100377.69;;;34.73;28.87
75298;BME280;63896;45.990;18.688;2023-05-23T09:26:17;100378.25;;;33.25;30.85
75298;BME280;63896;45.990;18.688;2023-05-23T09:29:20;100376.56;;;32.97;30.71
75298;BME280;63896;45.990;18.688;2023-05-23T09:32:23;100373.44;;;34.50;29.00
75298;BME280;63896;45.990;18.688;2023-05-23T09:35:27;100362.53;;;35.78;27.41
75298;BME280;63896;45.990;18.688;2023-05-23T09:38:37;100355.06;;;35.82;26.96
75298;BME280;63896;45.990;18.688;2023-05-23T09:41:48;100355.50;;;36.78;25.28
75298;BME280;63896;45.990;18.688;2023-05-23T09:44:52;100356.72;;;36.98;25.36
75298;BME280;63896;45.990;18.688;2023-05-23T09:47:55;100354.22;;;34.57;28.19
75298;BME280;63896;45.990;18.688;2023-05-23T09:51:03;100345.28;;;35.99;26.56
75298;BME280;63896;45.990;18.688;2023-05-23T09:54:06;100351.66;;;37.07;24.07
75298;BME280;63896;45.990;18.688;2023-05-23T09:57:09;100353.94;;;37.93;22.91
75298;BME280;63896;45.990;18.688;2023-05-23T10:00:13;100344.81;;;38.18;22.85
75298;BME280;63896;45.990;18.688;2023-05-23T10:03:21;100347.75;;;39.24;22.01
75298;BME280;63896;45.990;18.688;2023-05-23T10:06:31;100347.47;;;35.68;26.24
75298;BME280;63896;45.990;18.688;2023-05-23T10:09:38;100346.44;;;35.94;25.50
75298;BME280;63896;45.990;18.688;2023-05-23T10:12:46;100340.38;;;38.41;23.16
75298;BME280;63896;45.990;18.688;2023-05-23T10:15:58;100341.00;;;38.67;22.46
75298;BME280;63896;45.990;18.688;2023-05-23T10:19:51;100335.31;;;36.59;25.36
75298;BME280;63896;45.990;18.688;2023-05-23T10:22:51;100331.00;;;37.96;22.75
75298;BME280;63896;45.990;18.688;2023-05-23T10:25:55;100337.22;;;36.45;24.84
75298;BME280;63896;45.990;18.688;2023-05-23T10:28:59;100343.47;;;35.15;27.07
75298;BME280;63896;45.990;18.688;2023-05-23T10:32:03;100338.59;;;34.64;27.49
75298;BME280;63896;45.990;18.688;2023-05-23T10:38:27;100347.25;;;32.63;31.57
75298;BME280;63896;45.990;18.688;2023-05-23T10:41:42;100355.06;;;32.07;32.88
75298;BME280;63896;45.990;18.688;2023-05-23T10:44:46;100367.50;;;31.23;33.11
75298;BME280;63896;45.990;18.688;2023-05-23T10:48:31;100371.25;;;29.95;34.19
75298;BME280;63896;45.990;18.688;2023-05-23T10:52:07;100400.88;;;27.70;48.47
75298;BME280;63896;45.990;18.688;2023-05-23T10:55:36;100403.28;;;22.85;56.41
75298;BME280;63896;45.990;18.688;2023-05-23T10:58:39;100402.75;;;20.59;69.02
75298;BME280;63896;45.990;18.688;2023-05-23T11:02:25;100400.13;;;19.90;70.78
75298;BME280;63896;45.990;18.688;2023-05-23T11:05:46;100399.31;;;19.94;68.87
75298;BME280;63896;45.990;18.688;2023-05-23T11:09:34;100393.53;;;20.21;68.50
75298;BME280;63896;45.990;18.688;2023-05-23T11:13:07;100385.75;;;20.64;76.34
75298;BME280;63896;45.990;18.688;2023-05-23T11:16:31;100371.19;;;20.99;75.18
75298;BME280;63896;45.990;18.688;2023-05-23T11:20:05;100365.13;;;21.41;71.21
75298;BME280;63896;45.990;18.688;2023-05-23T11:23:11;100367.03;;;21.64;74.45
75298;BME280;63896;45.990;18.688;2023-05-23T11:26:30;100355.63;;;22.33;73.95
75298;BME280;63896;45.990;18.688;2023-05-23T11:29:35;100347.97;;;23.92;70.05
75298;BME280;63896;45.990;18.688;2023-05-23T11:32:48;100341.19;;;25.19;60.60
75298;BME280;63896;45.990;18.688;2023-05-23T11:36:21;100338.94;;;26.69;51.66
75298;BME280;63896;45.990;18.688;2023-05-23T11:39:51;100333.94;;;28.10;53.34
75298;BME280;63896;45.990;18.688;2023-05-23T11:42:59;100337.72;;;29.37;49.85
75298;BME280;63896;45.990;18.688;2023-05-23T11:46:08;100320.16;;;30.66;44.09
75298;BME280;63896;45.990;18.688;2023-05-23T11:49:11;100315.13;;;31.28;36.71
75298;BME280;63896;45.990;18.688;2023-05-23T11:52:14;100307.81;;;32.97;38.43
75298;BME280;63896;45.990;18.688;2023-05-23T11:55:19;100301.28;;;32.64;36.07
75298;BME280;63896;45.990;18.688;2023-05-23T12:01:38;100299.50;;;33.39;34.43
75298;BME280;63896;45.990;18.688;2023-05-23T12:04:41;100300.56;;;34.14;32.47
75298;BME280;63896;45.990;18.688;2023-05-23T12:07:46;100292.25;;;34.40;31.60
75298;BME280;63896;45.990;18.688;2023-05-23T12:10:56;100288.91;;;34.24;31.96
75298;BME280;63896;45.990;18.688;2023-05-23T12:13:59;100275.50;;;35.44;31.39
75298;BME280;63896;45.990;18.688;2023-05-23T12:17:05;100280.44;;;35.75;25.87
75298;BME280;63896;45.990;18.688;2023-05-23T12:20:10;100276.16;;;35.26;26.58
75298;BME280;63896;45.990;18.688;2023-05-23T12:23:18;100271.56;;;35.45;27.04
75298;BME280;63896;45.990;18.688;2023-05-23T12:26:21;100267.13;;;35.91;27.65
75298;BME280;63896;45.990;18.688;2023-05-23T12:29:32;100258.56;;;36.24;27.32
75298;BME280;63896;45.990;18.688;2023-05-23T12:32:40;100254.69;;;36.47;29.38
75298;BME280;63896;45.990;18.688;2023-05-23T12:35:44;100258.66;;;36.49;28.11
75298;BME280;63896;45.990;18.688;2023-05-23T12:38:47;100247.13;;;36.22;27.18
75298;BME280;63896;45.990;18.688;2023-05-23T12:41:49;100254.75;;;36.75;24.15
75298;BME280;63896;45.990;18.688;2023-05-23T12:44:52;100243.69;;;36.93;22.96
75298;BME280;63896;45.990;18.688;2023-05-23T12:47:55;100244.03;;;36.42;23.33
75298;BME280;63896;45.990;18.688;2023-05-23T12:50:58;100233.69;;;36.14;22.11
75298;BME280;63896;45.990;18.688;2023-05-23T12:54:01;100228.69;;;37.15;20.81
75298;BME280;63896;45.990;18.688;2023-05-23T12:57:07;100227.47;;;36.59;21.06
75298;BME280;63896;45.990;18.688;2023-05-23T13:01:15;100230.63;;;37.00;20.54
75298;BME280;63896;45.990;18.688;2023-05-23T13:04:17;100219.19;;;37.27;21.05
75298;BME280;63896;45.990;18.688;2023-05-23T13:07:21;100220.63;;;37.74;20.13
75298;BME280;63896;45.990;18.688;2023-05-23T13:10:24;100224.63;;;37.73;20.52
75298;BME280;63896;45.990;18.688;2023-05-23T13:13:27;100228.69;;;37.22;21.36
75298;BME280;63896;45.990;18.688;2023-05-23T13:16:40;100222.72;;;37.27;21.61
75298;BME280;63896;45.990;18.688;2023-05-23T13:19:43;100219.09;;;36.17;23.41
75298;BME280;63896;45.990;18.688;2023-05-23T13:22:46;100216.44;;;35.04;25.77
75298;BME280;63896;45.990;18.688;2023-05-23T13:25:49;100220.06;;;33.38;28.14
75298;BME280;63896;45.990;18.688;2023-05-23T13:28:54;100208.31;;;32.66;30.41
75298;BME280;63896;45.990;18.688;2023-05-23T13:31:57;100206.63;;;31.61;31.23
75298;BME280;63896;45.990;18.688;2023-05-23T13:35:00;100209.94;;;31.36;30.65
75298;BME280;63896;45.990;18.688;2023-05-23T13:38:03;100204.66;;;30.96;30.27
75298;BME280;63896;45.990;18.688;2023-05-23T13:41:06;100194.69;;;31.19;32.25
75298;BME280;63896;45.990;18.688;2023-05-23T13:44:09;100197.34;;;31.15;32.36
75298;BME280;63896;45.990;18.688;2023-05-23T13:47:13;100195.44;;;31.35;31.30
75298;BME280;63896;45.990;18.688;2023-05-23T13:50:16;100191.50;;;30.70;32.46
75298;BME280;63896;45.990;18.688;2023-05-23T13:53:19;100189.06;;;30.37;32.27
75298;BME280;63896;45.990;18.688;2023-05-23T13:56:23;100181.59;;;30.97;31.85
75298;BME280;63896;45.990;18.688;2023-05-23T13:59:26;100175.75;;;31.14;31.71
75298;BME280;63896;45.990;18.688;2023-05-23T14:02:29;100177.63;;;30.63;31.47
75298;BME280;63896;45.990;18.688;2023-05-23T14:05:33;100186.28;;;30.49;31.41
75298;BME280;63896;45.990;18.688;2023-05-23T14:08:37;100177.69;;;30.35;32.17
75298;BME280;63896;45.990;18.688;2023-05-23T14:11:40;100176.47;;;30.64;32.19
75298;BME280;63896;45.990;18.688;2023-05-23T14:14:43;100169.41;;;30.63;32.51
75298;BME280;63896;45.990;18.688;2023-05-23T14:17:46;100172.81;;;30.01;33.81
75298;BME280;63896;45.990;18.688;2023-05-23T14:20:49;100163.13;;;30.03;33.28
75298;BME280;63896;45.990;18.688;2023-05-23T14:23:52;100161.38;;;30.11;33.99
75298;BME280;63896;45.990;18.688;2023-05-23T14:26:55;100172.47;;;29.62;34.44
75298;BME280;63896;45.990;18.688;2023-05-23T14:29:58;100173.13;;;29.71;35.48
75298;BME280;63896;45.990;18.688;2023-05-23T14:33:00;100177.72;;;29.67;34.74
75298;BME280;63896;45.990;18.688;2023-05-23T14:36:04;100170.69;;;29.54;34.91
75298;BME280;63896;45.990;18.688;2023-05-23T14:39:07;100166.28;;;29.77;36.63
75298;BME280;63896;45.990;18.688;2023-05-23T14:42:12;100165.81;;;29.88;34.15
75298;BME280;63896;45.990;18.688;2023-05-23T14:45:15;100170.81;;;29.58;34.41
75298;BME280;63896;45.990;18.688;2023-05-23T14:48:20;100168.84;;;29.58;34.38
75298;BME280;63896;45.990;18.688;2023-05-23T14:51:23;100159.53;;;29.47;35.04
75298;BME280;63896;45.990;18.688;2023-05-23T14:54:46;100161.63;;;29.38;35.49
75298;BME280;63896;45.990;18.688;2023-05-23T14:57:49;100160.72;;;29.10;35.36
75298;BME280;63896;45.990;18.688;2023-05-23T15:00:52;100158.47;;;28.88;34.93
75298;BME280;63896;45.990;18.688;2023-05-23T15:03:55;100162.53;;;28.81;35.18
75298;BME280;63896;45.990;18.688;2023-05-23T15:06:58;100158.25;;;28.80;35.22
75298;BME280;63896;45.990;18.688;2023-05-23T15:10:02;100156.53;;;28.88;35.29
75298;BME280;63896;45.990;18.688;2023-05-23T15:13:05;100167.28;;;28.60;35.39
75298;BME280;63896;45.990;18.688;2023-05-23T15:16:08;100163.06;;;28.63;35.14
75298;BME280;63896;45.990;18.688;2023-05-23T15:19:11;100170.94;;;28.64;36.15
75298;BME280;63896;45.990;18.688;2023-05-23T15:22:14;100164.66;;;28.64;35.46
75298;BME280;63896;45.990;18.688;2023-05-23T15:25:37;100158.38;;;28.39;35.52
75298;BME280;63896;45.990;18.688;2023-05-23T15:28:51;100157.34;;;28.31;36.07
75298;BME280;63896;45.990;18.688;2023-05-23T15:31:54;100154.41;;;28.36;35.39
75298;BME280;63896;45.990;18.688;2023-05-23T15:34:57;100156.72;;;28.14;35.59
75298;BME280;63896;45.990;18.688;2023-05-23T15:37:59;100146.63;;;27.93;36.94
75298;BME280;63896;45.990;18.688;2023-05-23T15:41:02;100140.66;;;27.79;37.70
75298;BME280;63896;45.990;18.688;2023-05-23T15:44:06;100138.25;;;27.78;37.61
75298;BME280;63896;45.990;18.688;2023-05-23T15:47:09;100130.56;;;27.80;38.13
75298;BME280;63896;45.990;18.688;2023-05-23T15:50:12;100132.25;;;27.72;38.46
75298;BME280;63896;45.990;18.688;2023-05-23T15:53:15;100137.34;;;27.74;37.42
75298;BME280;63896;45.990;18.688;2023-05-23T15:56:18;100127.31;;;27.66;39.04
75298;BME280;63896;45.990;18.688;2023-05-23T15:59:21;100133.03;;;27.52;38.09
75298;BME280;63896;45.990;18.688;2023-05-23T16:02:24;100126.75;;;27.31;38.03
75298;BME280;63896;45.990;18.688;2023-05-23T16:05:27;100120.41;;;27.48;38.48
75298;BME280;63896;45.990;18.688;2023-05-23T16:08:30;100116.41;;;27.45;39.95
75298;BME280;63896;45.990;18.688;2023-05-23T16:11:33;100123.03;;;27.35;38.49
75298;BME280;63896;45.990;18.688;2023-05-23T16:14:36;100120.00;;;27.37;39.59
75298;BME280;63896;45.990;18.688;2023-05-23T16:17:38;100124.25;;;27.26;38.76
75298;BME280;63896;45.990;18.688;2023-05-23T16:20:41;100124.44;;;27.21;38.79
75298;BME280;63896;45.990;18.688;2023-05-23T16:23:45;100131.66;;;27.17;38.12
75298;BME280;63896;45.990;18.688;2023-05-23T16:26:48;100129.94;;;27.12;38.94